Terminal Aerodrome Forecast
Issued by NWS Sioux Falls, SD

Home | Current Version | Previous Version | Graphics & Text | Print | Product List | Glossary Off
Versions: 1 2 3 4 5 6 7 8 9 10 11 12 13 14 15 16 17 18 19 20 21 22 23 24 25

000
FTUS43 KFSD 191130
TAFSUX
TAF
KSUX 191130Z 1912/2012 01012KT P6SM OVC018
     FM191600 01010KT P6SM SCT025
     FM191900 02011KT P6SM BKN120
     FM200000 02010KT P6SM OVC060
     FM200600 04006KT 5SM -RA BR OVC025=

USA.gov is the U.S. government's official web portal to all federal, state and local government web resources and services.